Aviation Digital Data Service (ADDS)

Output produced by METARs form (1825 UTC 16 August 2018)
found at http://www.aviationweather.gov/adds/metars/
 
MUSC 161700Z 1618/1718 09010KT 9000 SCT020 
     TEMPO 1618/1624 3000 TSRA SCT018CB BKN020 
     BECMG 1701/1703 VRB03KT 
     BECMG 1713/1715 06010KT
       
MUCU 161700Z 1618/1718 15010KT 9000 SCT020 
     TEMPO 1618/1624 3000 TSRA SCT018CB BKN020 
     BECMG 1701/1703 36005KT 
     BECMG 1713/1715 15010KT
       
MUHG 161700Z 1618/1718 12010KT 9000 SCT020 
     TEMPO 1618/1624 3000 TSRA SCT018CB BKN020 
     BECMG 1701/1703 VRB03KT 
     BECMG 1713/1715 12010KT
       
TAF COR MUGM 1615/1715 10013KT 9999 FEW035 SCT280 QNH3006INS 
     BECMG 1616/1618 12018G28KT 9999 VCSH SCT035CB BKN280 510006 QNH2999INS 
     BECMG 1621/1623 09011KT 9999 VCSH SCT030CB BKN280 500000 QNH2999INS 
     FM170200 34006KT 9999 FEW030 SCT280 QNH3002INS 
     FM170900 34006KT 9999 VCTS SCT025CB SCT060 BKN280 QNH3002INS T35/1618Z T25/1711Z COR 1503 FN20025
       
MUCM 161700Z 1618/1718 06010KT 9000 SCT020 
     TEMPO 1618/1624 3000 TSRA SCT018CB BKN020 
     BECMG 1701/1703 VRB03KT 
     BECMG 1713/1715 06010KT
       
MUCF 161700Z 1618/1706 VRB05KT 9000 SCT020 
     TEMPO 1618/1624 3000 TSRA SCT018CB BKN020
       
MUCC 161700Z 1618/1718 09012KT 9000 SCT020 
     TEMPO 1618/1624 SCT018CB BKN020 
     BECMG 1703/1705 09005KT 
     BECMG 1713/1715 09012KT
       
MUHA 161700Z 1618/1718 12010KT 9000 SCT030 
     TEMPO 1619/1623 3000 TSRA FEW018CB BKN020 
     BECMG 1702/1704 VRB03KT 
     BECMG 1714/1716 10004KT
       
MUVR 161700Z 1618/1718 09010KT 9000 SCT020 
     TEMPO 1618/1624 3000 TSRA SCT018CB BKN020 
     BECMG 1701/1703 VRB03KT 
     BECMG 1713/1715 06010KT
       
MUCL 161700Z 1618/1706 10012KT 9000 SCT020 
     TEMPO 1618/1624 5000 SHRA FEW018CB BKN020 
     BECMG 1701/1703 VRB03KT